Time;durP1;ratioP1;P1;durP2;ratioP2;P2;SDS_P1;SDS_P2;PMS_P1;PMS_P2;Temp;Humidity;BMP_temperature;BMP_pressure;BME280_temperature;BME280_humidity;BME280_pressure;Samples;Min_cycle;Max_cycle;Signal;HPM_P1;HPM_P2
2023/06/28 00:01:01;;;;;;;3.50;1.60;;;15.40;59.00;;;;;;2034028;29;20723;-65
2023/06/28 00:02:02;;;;;;;2.80;1.60;;;15.40;60.00;;;;;;2031575;29;20259;-66
2023/06/28 00:03:04;;;;;;;1.97;1.50;;;15.40;59.90;;;;;;2027612;29;20512;-66
2023/06/28 00:04:05;;;;;;;2.00;1.70;;;15.40;59.60;;;;;;2029449;29;20675;-65
2023/06/28 00:05:10;;;;;;;4.10;2.40;;;15.40;59.90;;;;;;2033891;29;20546;-65
2023/06/28 00:06:10;;;;;;;2.00;1.60;;;15.40;59.30;;;;;;2028855;29;20256;-66
2023/06/28 00:07:12;;;;;;;2.30;1.60;;;15.40;59.40;;;;;;2027416;29;20194;-65
2023/06/28 00:08:12;;;;;;;3.72;1.75;;;15.40;59.20;;;;;;2030018;29;20205;-65
2023/06/28 00:09:13;;;;;;;3.87;2.10;;;15.40;59.20;;;;;;2034284;29;20188;-65
2023/06/28 00:10:14;;;;;;;4.00;1.80;;;15.30;59.50;;;;;;2027212;29;20197;-65
2023/06/28 00:11:15;;;;;;;3.15;1.77;;;15.30;59.90;;;;;;2027893;29;20684;-65
2023/06/28 00:12:16;;;;;;;2.57;1.43;;;15.20;59.80;;;;;;2034766;29;20185;-65
2023/06/28 00:13:17;;;;;;;3.07;1.80;;;15.20;59.40;;;;;;2034449;29;20195;-65
2023/06/28 00:14:18;;;;;;;4.00;1.98;;;15.10;59.40;;;;;;2037184;29;20188;-65
2023/06/28 00:15:19;;;;;;;1.90;1.60;;;15.10;60.00;;;;;;2033711;29;20185;-65
2023/06/28 00:16:21;;;;;;;1.88;1.60;;;15.10;60.40;;;;;;2034450;29;20238;-65
2023/06/28 00:17:27;;;;;;;2.65;1.60;;;15.00;60.30;;;;;;2033939;29;20295;-65
2023/06/28 00:18:30;;;;;;;2.90;1.80;;;15.00;60.50;;;;;;2023460;29;20241;-65
2023/06/28 00:19:32;;;;;;;2.55;1.77;;;14.90;60.50;;;;;;2022987;29;20237;-65
2023/06/28 00:20:32;;;;;;;3.28;1.92;;;14.80;60.80;;;;;;2030096;29;20233;-65
2023/06/28 00:21:33;;;;;;;2.23;1.60;;;14.80;61.00;;;;;;2027509;29;20268;-65
2023/06/28 00:22:36;;;;;;;2.90;1.60;;;14.80;61.20;;;;;;2034493;29;20236;-65
2023/06/28 00:23:37;;;;;;;1.92;1.50;;;14.70;61.70;;;;;;2037886;29;20228;-65
2023/06/28 00:24:37;;;;;;;2.95;1.40;;;14.70;61.70;;;;;;2027179;29;20299;-65
2023/06/28 00:25:38;;;;;;;2.03;1.57;;;14.70;62.10;;;;;;2027869;29;20237;-65
2023/06/28 00:26:39;;;;;;;2.83;1.70;;;14.60;62.00;;;;;;2027362;29;20329;-65
2023/06/28 00:27:39;;;;;;;4.00;1.90;;;14.50;62.40;;;;;;2037527;29;20243;-65
2023/06/28 00:28:40;;;;;;;2.70;1.60;;;14.50;62.60;;;;;;2036781;29;20241;-65
2023/06/28 00:29:41;;;;;;;4.73;1.57;;;14.50;62.60;;;;;;2037755;29;20640;-65
2023/06/28 00:30:42;;;;;;;3.58;1.80;;;14.50;62.50;;;;;;2035153;29;20477;-65
2023/06/28 00:31:43;;;;;;;2.17;1.83;;;14.50;62.40;;;;;;2030433;29;20300;-64
2023/06/28 00:32:44;;;;;;;1.97;1.80;;;14.50;62.50;;;;;;2026984;29;20650;-65
2023/06/28 00:33:45;;;;;;;3.20;1.77;;;14.40;62.80;;;;;;2030210;29;20244;-65
2023/06/28 00:34:46;;;;;;;1.98;1.70;;;14.40;62.80;;;;;;2024348;29;20236;-65
2023/06/28 00:35:48;;;;;;;2.93;1.87;;;14.40;63.10;;;;;;2023715;29;20224;-65
2023/06/28 00:36:49;;;;;;;2.47;1.70;;;14.30;63.70;;;;;;2025607;29;20659;-65
2023/06/28 00:37:49;;;;;;;2.03;1.83;;;14.30;64.20;;;;;;2024629;29;20221;-65
2023/06/28 00:38:50;;;;;;;2.10;1.70;;;14.20;64.10;;;;;;2024752;29;20233;-65
2023/06/28 00:39:51;;;;;;;3.73;1.80;;;14.20;64.60;;;;;;2027985;29;20649;-65
2023/06/28 00:40:52;;;;;;;4.00;1.73;;;14.10;65.00;;;;;;2027092;29;20232;-65
2023/06/28 00:41:52;;;;;;;2.40;1.87;;;14.10;65.10;;;;;;2017685;29;20240;-65
2023/06/28 00:42:53;;;;;;;2.63;1.80;;;14.10;65.10;;;;;;2016939;29;20232;-65
2023/06/28 00:43:54;;;;;;;3.95;1.95;;;14.20;65.40;;;;;;2024676;29;20735;-65
2023/06/28 00:44:55;;;;;;;2.10;1.90;;;14.20;65.00;;;;;;2028701;29;20331;-65
2023/06/28 00:45:56;;;;;;;3.35;2.08;;;14.20;65.00;;;;;;2023766;29;20226;-64
2023/06/28 00:46:59;;;;;;;2.47;1.70;;;14.20;65.00;;;;;;2024988;29;20227;-64
2023/06/28 00:48:00;;;;;;;1.70;1.60;;;14.20;65.70;;;;;;2025905;29;20779;-65
2023/06/28 00:49:02;;;;;;;2.65;1.75;;;14.20;65.00;;;;;;2035226;29;20255;-66
2023/06/28 00:50:03;;;;;;;4.90;1.92;;;14.10;65.10;;;;;;2029486;29;20256;-65
2023/06/28 00:51:05;;;;;;;3.85;1.75;;;14.10;65.10;;;;;;2018335;29;20193;-65
2023/06/28 00:52:06;;;;;;;3.95;1.98;;;14.10;65.00;;;;;;2020094;29;20189;-65
2023/06/28 00:53:07;;;;;;;1.95;1.50;;;14.10;64.80;;;;;;2016778;29;20190;-65
2023/06/28 00:54:09;;;;;;;2.00;1.60;;;14.10;64.80;;;;;;2025288;29;20201;-65
2023/06/28 00:55:10;;;;;;;4.20;1.42;;;14.10;65.30;;;;;;2028394;29;20200;-65
2023/06/28 00:56:11;;;;;;;3.50;1.88;;;14.00;65.20;;;;;;2014747;29;20207;-65
2023/06/28 00:57:12;;;;;;;5.32;1.92;;;14.00;65.60;;;;;;2025106;29;20210;-65
2023/06/28 00:58:13;;;;;;;3.17;1.60;;;14.10;65.40;;;;;;2027251;29;20316;-65
2023/06/28 00:59:18;;;;;;;2.90;1.80;;;14.10;65.50;;;;;;2018390;29;20241;-65
2023/06/28 01:00:19;;;;;;;2.80;1.70;;;14.10;65.10;;;;;;2023883;29;20185;-65
2023/06/28 01:01:19;;;;;;;3.93;1.87;;;14.10;65.10;;;;;;2018046;29;20615;-65
2023/06/28 01:02:21;;;;;;;2.60;1.70;;;14.10;64.90;;;;;;2025878;29;20197;-65
2023/06/28 01:03:21;;;;;;;2.65;1.60;;;14.10;65.50;;;;;;2006240;29;20343;-65
2023/06/28 01:04:22;;;;;;;4.93;1.93;;;14.00;65.70;;;;;;2014875;29;20190;-65
2023/06/28 01:05:23;;;;;;;2.97;1.70;;;14.00;65.50;;;;;;2013730;29;20201;-65
2023/06/28 01:06:30;;;;;;;3.63;1.70;;;14.00;65.50;;;;;;2023047;29;20276;-65
2023/06/28 01:07:34;;;;;;;2.67;1.60;;;14.00;65.10;;;;;;2014046;29;20234;-65
2023/06/28 01:08:35;;;;;;;6.55;2.17;;;13.90;65.80;;;;;;2032732;29;20214;-65
2023/06/28 01:09:36;;;;;;;4.05;1.92;;;13.90;65.80;;;;;;2022524;29;20232;-65
2023/06/28 01:10:37;;;;;;;2.60;1.60;;;13.90;65.60;;;;;;2015460;29;20190;-65
2023/06/28 01:11:39;;;;;;;2.53;1.50;;;13.90;65.90;;;;;;2004611;29;20235;-65
2023/06/28 01:12:40;;;;;;;2.75;1.50;;;13.80;66.50;;;;;;2010660;29;20187;-65
2023/06/28 01:13:41;;;;;;;4.80;1.85;;;13.80;66.40;;;;;;2010730;29;20316;-65
2023/06/28 01:14:41;;;;;;;2.53;1.73;;;13.80;66.70;;;;;;2030921;29;20193;-66
2023/06/28 01:15:42;;;;;;;3.03;2.07;;;13.80;66.90;;;;;;2008724;29;20328;-65
2023/06/28 01:16:45;;;;;;;2.93;1.70;;;13.80;66.70;;;;;;2025347;29;20197;-65
2023/06/28 01:17:47;;;;;;;2.70;1.73;;;13.80;66.50;;;;;;2019620;29;20312;-66
2023/06/28 01:18:48;;;;;;;2.05;1.70;;;13.80;67.20;;;;;;2029238;29;20571;-65
2023/06/28 01:19:49;;;;;;;3.27;1.80;;;13.80;66.60;;;;;;2023490;29;20260;-65
2023/06/28 01:20:54;;;;;;;2.38;1.67;;;13.80;67.00;;;;;;2031047;29;20193;-65
2023/06/28 01:22:01;;;;;;;1.92;1.77;;;13.60;67.40;;;;;;2017860;29;20228;-65
2023/06/28 01:23:02;;;;;;;2.60;1.52;;;13.70;67.70;;;;;;2022971;29;20185;-65
2023/06/28 01:24:04;;;;;;;2.77;1.67;;;13.70;67.00;;;;;;2016939;29;20248;-65
2023/06/28 01:25:05;;;;;;;2.45;1.73;;;13.70;67.10;;;;;;2028175;29;20423;-65
2023/06/28 01:26:08;;;;;;;2.45;1.70;;;13.70;66.80;;;;;;2013266;29;20598;-65
2023/06/28 01:27:13;;;;;;;2.92;1.80;;;13.70;66.80;;;;;;2022165;29;20267;-66
2023/06/28 01:28:14;;;;;;;4.47;2.00;;;13.80;66.80;;;;;;2028575;29;20591;-65
2023/06/28 01:29:15;;;;;;;3.33;1.90;;;13.80;66.20;;;;;;2018812;29;20203;-66
2023/06/28 01:30:17;;;;;;;2.67;1.73;;;13.80;66.90;;;;;;2033803;29;20186;-65
2023/06/28 01:31:18;;;;;;;2.63;1.63;;;13.70;66.80;;;;;;2029146;28;20251;-65
2023/06/28 01:32:20;;;;;;;3.15;2.17;;;13.70;67.10;;;;;;2026634;29;20199;-65
2023/06/28 01:33:20;;;;;;;3.03;1.70;;;13.80;67.00;;;;;;2010039;29;20201;-65
2023/06/28 01:34:22;;;;;;;2.70;1.60;;;13.90;66.60;;;;;;2030781;29;20193;-65
2023/06/28 01:35:23;;;;;;;5.07;2.05;;;13.80;67.60;;;;;;2008401;29;20278;-65
2023/06/28 01:36:23;;;;;;;2.83;1.60;;;13.90;67.70;;;;;;2029975;29;20271;-65
2023/06/28 01:37:24;;;;;;;2.57;1.60;;;13.90;68.50;;;;;;2012184;29;20218;-65
2023/06/28 01:38:27;;;;;;;4.37;2.27;;;13.90;68.30;;;;;;2022956;29;20711;-65
2023/06/28 01:39:31;;;;;;;1.98;1.45;;;13.80;68.00;;;;;;2013636;29;20837;-65
2023/06/28 01:40:36;;;;;;;3.58;1.90;;;13.90;67.50;;;;;;2027630;29;20208;-65
2023/06/28 01:41:37;;;;;;;4.18;1.80;;;13.90;67.80;;;;;;2016491;29;20225;-65
2023/06/28 01:42:39;;;;;;;6.07;1.70;;;13.90;67.50;;;;;;2018114;29;20191;-66
2023/06/28 01:43:41;;;;;;;2.47;1.52;;;13.80;67.30;;;;;;2013477;29;20237;-65
2023/06/28 01:44:42;;;;;;;1.70;1.60;;;13.80;68.20;;;;;;2031296;29;20237;-65
2023/06/28 01:45:43;;;;;;;1.60;1.40;;;13.70;68.10;;;;;;2023646;29;20233;-65
2023/06/28 01:46:44;;;;;;;3.00;1.77;;;13.70;68.50;;;;;;2035030;29;20186;-65
2023/06/28 01:47:45;;;;;;;1.92;1.40;;;13.60;69.60;;;;;;2014350;29;20240;-65
2023/06/28 01:48:46;;;;;;;2.17;1.75;;;13.50;70.10;;;;;;2030938;29;20217;-65
2023/06/28 01:49:47;;;;;;;1.90;1.70;;;13.40;69.40;;;;;;2025449;29;20712;-64
2023/06/28 01:50:48;;;;;;;2.43;1.60;;;13.40;69.30;;;;;;2032526;29;20715;-65
2023/06/28 01:51:48;;;;;;;1.90;1.63;;;13.50;69.90;;;;;;2024714;29;20280;-66
2023/06/28 01:52:49;;;;;;;2.27;1.57;;;13.50;69.70;;;;;;2037085;29;20316;-65
2023/06/28 01:53:50;;;;;;;3.40;1.60;;;13.60;69.20;;;;;;2026753;29;20718;-65
2023/06/28 01:54:51;;;;;;;2.40;1.53;;;13.60;68.90;;;;;;2032705;29;20193;-65
2023/06/28 01:55:52;;;;;;;2.00;1.48;;;13.70;68.50;;;;;;2028098;28;20227;-65
2023/06/28 01:56:53;;;;;;;2.33;1.70;;;13.90;66.90;;;;;;2029570;29;20192;-65
2023/06/28 01:57:53;;;;;;;2.70;1.63;;;13.90;66.60;;;;;;2014714;29;20307;-65
2023/06/28 01:58:54;;;;;;;2.97;1.60;;;13.90;66.50;;;;;;2029328;29;20189;-66
2023/06/28 01:59:55;;;;;;;2.70;2.10;;;13.90;65.30;;;;;;2017630;29;20248;-64
2023/06/28 02:00:56;;;;;;;2.97;1.70;;;14.00;65.00;;;;;;2034356;29;20213;-64
2023/06/28 02:01:58;;;;;;;2.70;1.80;;;14.10;64.80;;;;;;2020508;29;20225;-64
2023/06/28 02:02:58;;;;;;;4.05;1.50;;;14.20;64.90;;;;;;2020759;29;20326;-64
2023/06/28 02:03:59;;;;;;;3.30;1.63;;;14.30;65.60;;;;;;2013188;29;20686;-64
2023/06/28 02:05:00;;;;;;;4.73;1.90;;;14.30;66.20;;;;;;2031507;29;20220;-64
2023/06/28 02:06:01;;;;;;;2.27;1.60;;;14.20;66.60;;;;;;2020434;29;20232;-64
2023/06/28 02:07:01;;;;;;;3.97;1.90;;;14.20;65.80;;;;;;2027746;29;20193;-64
2023/06/28 02:08:02;;;;;;;1.97;1.50;;;14.20;65.40;;;;;;2019703;28;20312;-63
2023/06/28 02:09:03;;;;;;;2.13;1.50;;;14.30;64.90;;;;;;2037764;29;20718;-64
2023/06/28 02:10:06;;;;;;;2.50;1.83;;;14.40;65.10;;;;;;2031207;29;20231;-64
2023/06/28 02:11:07;;;;;;;2.72;1.90;;;14.40;65.00;;;;;;2034344;29;20189;-66
2023/06/28 02:12:08;;;;;;;2.53;1.80;;;14.40;65.10;;;;;;2031039;29;20209;-64
2023/06/28 02:13:09;;;;;;;2.43;1.67;;;14.50;64.80;;;;;;2035104;29;20585;-64
2023/06/28 02:14:09;;;;;;;2.93;1.70;;;14.60;64.40;;;;;;2029100;28;21164;-64
2023/06/28 02:15:12;;;;;;;3.33;1.70;;;14.60;64.00;;;;;;2036520;29;20193;-64
2023/06/28 02:16:13;;;;;;;5.28;1.83;;;14.60;64.20;;;;;;2025239;29;20229;-64
2023/06/28 02:17:14;;;;;;;2.73;1.63;;;14.60;64.20;;;;;;2026964;29;20212;-64
2023/06/28 02:18:16;;;;;;;4.63;1.63;;;14.60;63.60;;;;;;2032035;29;21200;-64
2023/06/28 02:19:18;;;;;;;2.13;1.70;;;14.50;64.40;;;;;;2021853;28;20211;-64
2023/06/28 02:20:19;;;;;;;3.17;1.90;;;14.50;64.30;;;;;;2039825;29;20215;-64
2023/06/28 02:21:20;;;;;;;2.90;1.60;;;14.50;64.50;;;;;;2028683;29;20196;-64
2023/06/28 02:22:21;;;;;;;3.70;1.80;;;14.40;64.90;;;;;;2036630;29;20188;-64
2023/06/28 02:23:23;;;;;;;2.30;1.50;;;14.50;65.00;;;;;;2028084;29;20210;-64
2023/06/28 02:24:25;;;;;;;3.22;1.70;;;14.40;64.30;;;;;;2025826;29;20543;-64
2023/06/28 02:25:25;;;;;;;2.75;1.50;;;14.50;64.20;;;;;;2022370;29;20612;-64
2023/06/28 02:26:26;;;;;;;1.83;1.40;;;14.50;64.00;;;;;;2031766;29;20181;-64
2023/06/28 02:27:27;;;;;;;4.23;2.00;;;14.40;63.50;;;;;;2025769;28;20243;-64
2023/06/28 02:28:27;;;;;;;4.37;2.07;;;14.40;63.90;;;;;;2039270;29;20243;-65
2023/06/28 02:29:28;;;;;;;2.73;1.77;;;14.40;64.60;;;;;;2022477;29;20193;-64
2023/06/28 02:30:29;;;;;;;3.33;1.90;;;14.40;63.70;;;;;;2025315;29;20248;-64
2023/06/28 02:31:30;;;;;;;3.23;2.07;;;14.60;63.60;;;;;;2021822;29;20799;-64
2023/06/28 02:32:31;;;;;;;2.67;1.63;;;14.70;63.30;;;;;;2029437;29;20568;-65
2023/06/28 02:33:32;;;;;;;3.00;1.77;;;14.70;63.30;;;;;;2026111;29;20296;-64
2023/06/28 02:34:33;;;;;;;2.22;1.40;;;14.60;64.40;;;;;;2037245;29;20188;-65
2023/06/28 02:35:34;;;;;;;3.72;1.70;;;14.60;64.60;;;;;;2023015;29;20268;-64
2023/06/28 02:36:35;;;;;;;2.93;1.63;;;14.60;64.40;;;;;;2031231;29;20261;-64
2023/06/28 02:37:35;;;;;;;4.87;1.60;;;14.60;64.50;;;;;;2020681;29;20249;-64
2023/06/28 02:38:36;;;;;;;3.83;1.60;;;14.70;64.80;;;;;;2029204;29;20215;-64
2023/06/28 02:39:37;;;;;;;3.60;1.70;;;14.60;65.20;;;;;;2026903;29;20311;-64
2023/06/28 02:40:37;;;;;;;3.23;1.80;;;14.60;64.60;;;;;;2039760;29;20619;-64
2023/06/28 02:41:38;;;;;;;2.17;1.67;;;14.60;64.60;;;;;;2032254;29;20286;-64
2023/06/28 02:42:40;;;;;;;1.70;1.60;;;14.60;64.40;;;;;;2029503;29;20269;-64
2023/06/28 02:43:40;;;;;;;4.95;1.98;;;14.70;64.20;;;;;;2035847;29;20465;-64
2023/06/28 02:44:41;;;;;;;2.47;1.80;;;14.70;64.00;;;;;;2038846;29;20271;-64
2023/06/28 02:45:42;;;;;;;2.40;1.70;;;14.70;64.20;;;;;;2023506;29;20232;-64
2023/06/28 02:46:42;;;;;;;6.40;1.70;;;14.60;64.80;;;;;;2030297;29;20331;-64
2023/06/28 02:47:43;;;;;;;4.23;1.63;;;14.50;64.70;;;;;;2028915;29;20325;-65
2023/06/28 02:48:44;;;;;;;1.77;1.60;;;14.50;64.00;;;;;;2032449;29;20288;-64
2023/06/28 02:49:44;;;;;;;5.87;1.80;;;14.50;64.00;;;;;;2035867;29;20307;-65
2023/06/28 02:50:45;;;;;;;3.83;1.50;;;14.50;64.00;;;;;;2028046;29;20836;-64
2023/06/28 02:51:46;;;;;;;3.97;1.70;;;14.50;64.00;;;;;;2031870;29;20228;-64
2023/06/28 02:52:47;;;;;;;3.17;1.80;;;14.60;64.10;;;;;;2032375;29;20323;-64
2023/06/28 02:53:48;;;;;;;2.70;1.80;;;14.60;64.00;;;;;;2033685;29;20299;-64
2023/06/28 02:54:48;;;;;;;3.57;1.70;;;14.60;64.20;;;;;;2038351;29;20224;-64
2023/06/28 02:55:49;;;;;;;2.13;1.70;;;14.70;63.10;;;;;;2024093;29;20232;-64
2023/06/28 02:56:50;;;;;;;1.73;1.57;;;14.60;64.00;;;;;;2023880;29;20229;-64
2023/06/28 02:57:52;;;;;;;8.13;1.80;;;14.60;63.70;;;;;;2029079;29;20707;-65
2023/06/28 02:58:52;;;;;;;6.95;1.88;;;14.50;63.60;;;;;;2028248;29;20613;-64
2023/06/28 02:59:53;;;;;;;2.40;1.73;;;14.50;64.30;;;;;;2027769;29;20221;-64
2023/06/28 03:00:54;;;;;;;2.03;1.50;;;14.50;63.80;;;;;;2025913;29;20229;-64
2023/06/28 03:01:54;;;;;;;4.67;1.90;;;14.60;63.60;;;;;;2026144;29;20241;-64
2023/06/28 03:02:55;;;;;;;1.60;1.47;;;14.70;63.50;;;;;;2027973;29;20225;-64
2023/06/28 03:03:56;;;;;;;5.10;1.40;;;14.60;62.80;;;;;;2027115;29;20228;-64
2023/06/28 03:04:57;;;;;;;2.80;1.93;;;14.60;63.00;;;;;;2026238;29;20252;-64
2023/06/28 03:05:57;;;;;;;2.90;1.50;;;14.50;64.50;;;;;;2027946;29;20229;-64
2023/06/28 03:06:59;;;;;;;2.42;1.80;;;14.50;64.20;;;;;;2039340;29;20238;-64
2023/06/28 03:08:00;;;;;;;2.38;1.80;;;14.50;65.30;;;;;;2035678;29;20220;-64
2023/06/28 03:09:01;;;;;;;1.63;1.40;;;14.50;65.30;;;;;;2027089;29;20217;-65
2023/06/28 03:10:02;;;;;;;2.20;1.57;;;14.50;64.90;;;;;;2030313;29;20189;-65
2023/06/28 03:11:02;;;;;;;4.53;1.80;;;14.50;64.80;;;;;;2027839;29;20244;-65
2023/06/28 03:12:03;;;;;;;4.30;1.60;;;14.50;65.00;;;;;;2025534;29;20192;-65
2023/06/28 03:13:04;;;;;;;2.97;1.70;;;14.50;64.60;;;;;;2027081;29;20185;-65
2023/06/28 03:14:05;;;;;;;4.40;1.63;;;14.50;64.40;;;;;;2019229;29;20433;-65
2023/06/28 03:15:06;;;;;;;5.27;1.97;;;14.50;64.90;;;;;;2026362;29;20185;-65
2023/06/28 03:16:08;;;;;;;3.20;1.88;;;14.50;64.80;;;;;;2028286;29;20189;-65
2023/06/28 03:17:08;;;;;;;2.85;1.50;;;14.50;64.60;;;;;;2028210;29;20213;-65
2023/06/28 03:18:09;;;;;;;3.70;1.70;;;14.50;65.40;;;;;;2027101;29;20681;-65
2023/06/28 03:19:11;;;;;;;1.60;1.50;;;14.40;65.90;;;;;;2026718;29;20185;-65
2023/06/28 03:20:12;;;;;;;3.78;2.00;;;14.40;65.40;;;;;;2029052;29;20552;-64
2023/06/28 03:21:12;;;;;;;4.13;1.70;;;14.50;65.20;;;;;;2029220;29;20280;-64
2023/06/28 03:22:14;;;;;;;7.57;1.70;;;14.50;64.90;;;;;;2031889;29;20213;-65
2023/06/28 03:23:14;;;;;;;3.60;1.73;;;14.60;63.10;;;;;;2025514;29;20190;-65
2023/06/28 03:24:15;;;;;;;4.93;1.60;;;14.60;63.60;;;;;;2026649;29;20620;-65
2023/06/28 03:25:16;;;;;;;2.50;1.70;;;14.70;63.50;;;;;;2025958;29;20233;-64
2023/06/28 03:26:17;;;;;;;3.40;1.60;;;14.70;63.70;;;;;;2030363;29;20216;-65
2023/06/28 03:27:19;;;;;;;2.37;1.40;;;14.70;64.70;;;;;;2037140;29;20185;-64
2023/06/28 03:28:19;;;;;;;4.95;1.48;;;14.80;63.50;;;;;;2032230;29;20723;-64
2023/06/28 03:29:20;;;;;;;5.30;1.70;;;14.90;63.50;;;;;;2026964;29;20201;-64
2023/06/28 03:30:22;;;;;;;3.15;1.42;;;14.90;63.60;;;;;;2027474;29;20257;-64
2023/06/28 03:31:23;;;;;;;2.38;1.63;;;14.90;63.30;;;;;;2027494;29;20234;-64
2023/06/28 03:32:24;;;;;;;2.90;1.87;;;15.00;63.50;;;;;;2029101;29;20265;-64
2023/06/28 03:33:24;;;;;;;3.17;1.90;;;15.00;63.50;;;;;;2024289;29;20480;-66
2023/06/28 03:34:25;;;;;;;2.20;1.70;;;14.90;64.00;;;;;;2026433;29;20237;-65
2023/06/28 03:35:26;;;;;;;3.40;1.67;;;14.90;64.30;;;;;;2025924;29;20233;-64
2023/06/28 03:36:31;;;;;;;2.83;1.80;;;15.10;63.60;;;;;;2025530;29;20233;-65
2023/06/28 03:37:33;;;;;;;2.90;1.70;;;15.10;63.80;;;;;;2027743;29;20237;-64
2023/06/28 03:38:34;;;;;;;4.35;1.75;;;15.10;64.30;;;;;;2022833;29;21008;-64
2023/06/28 03:39:34;;;;;;;3.67;1.73;;;15.10;63.50;;;;;;2015586;29;20238;-65
2023/06/28 03:40:36;;;;;;;1.57;1.33;;;15.10;62.90;;;;;;2031197;29;20702;-65
2023/06/28 03:41:37;;;;;;;3.42;1.60;;;15.10;62.90;;;;;;2031053;29;20229;-65
2023/06/28 03:42:37;;;;;;;2.77;1.60;;;15.10;62.30;;;;;;2031112;29;20379;-65
2023/06/28 03:43:38;;;;;;;3.70;1.57;;;15.10;62.30;;;;;;2031824;29;20328;-65
2023/06/28 03:44:39;;;;;;;5.03;2.40;;;15.10;63.30;;;;;;2027027;29;20709;-65
2023/06/28 03:45:40;;;;;;;2.57;1.63;;;15.10;63.40;;;;;;2029489;29;20244;-65
2023/06/28 03:46:40;;;;;;;5.10;1.50;;;15.00;63.70;;;;;;2024921;29;20708;-65
2023/06/28 03:47:41;;;;;;;3.47;1.63;;;15.00;63.70;;;;;;2029180;29;20316;-65
2023/06/28 03:48:42;;;;;;;3.10;1.60;;;14.90;63.90;;;;;;2027269;29;20237;-65
2023/06/28 03:49:45;;;;;;;2.13;1.70;;;14.90;63.80;;;;;;2028257;29;20236;-65
2023/06/28 03:50:45;;;;;;;4.60;1.63;;;14.90;65.30;;;;;;2028117;29;20236;-65
2023/06/28 03:51:46;;;;;;;2.53;1.60;;;14.90;65.30;;;;;;2034498;29;20898;-65
2023/06/28 03:52:47;;;;;;;2.90;1.77;;;14.90;65.00;;;;;;2029437;29;20240;-65
2023/06/28 03:53:48;;;;;;;3.33;1.73;;;14.90;65.30;;;;;;2030049;29;21211;-65
2023/06/28 03:54:49;;;;;;;6.35;1.85;;;15.00;65.50;;;;;;2031964;29;20225;-65
2023/06/28 03:55:50;;;;;;;1.77;1.43;;;15.00;65.40;;;;;;2031180;29;20307;-65
2023/06/28 03:56:51;;;;;;;4.70;1.60;;;15.10;65.20;;;;;;2031720;29;20360;-65
2023/06/28 03:57:52;;;;;;;2.58;1.70;;;15.10;64.60;;;;;;2029547;29;20216;-65
2023/06/28 03:58:53;;;;;;;4.28;1.83;;;15.20;64.80;;;;;;2031597;29;20629;-65
2023/06/28 03:59:55;;;;;;;3.80;1.80;;;15.20;65.30;;;;;;2028477;29;20261;-65
2023/06/28 04:00:56;;;;;;;2.88;1.80;;;15.10;65.90;;;;;;2030749;29;20756;-65
2023/06/28 04:01:57;;;;;;;2.28;1.70;;;15.00;66.60;;;;;;2026153;29;20657;-65
2023/06/28 04:02:58;;;;;;;4.57;1.97;;;14.90;67.00;;;;;;2025661;29;20228;-65
2023/06/28 04:03:59;;;;;;;2.50;1.50;;;15.00;67.20;;;;;;2027567;29;20229;-65
2023/06/28 04:04:59;;;;;;;2.50;1.83;;;15.10;67.10;;;;;;2024040;29;20240;-65
2023/06/28 04:06:00;;;;;;;3.87;1.60;;;15.10;66.80;;;;;;2027711;29;20242;-65
2023/06/28 04:07:01;;;;;;;3.47;2.17;;;15.10;66.50;;;;;;2029997;29;20236;-66
2023/06/28 04:08:02;;;;;;;5.03;2.00;;;15.10;66.30;;;;;;2036882;29;20204;-66
2023/06/28 04:09:04;;;;;;;2.67;1.70;;;15.10;64.70;;;;;;2038642;29;20691;-65
2023/06/28 04:10:06;;;;;;;5.00;1.75;;;15.20;64.80;;;;;;2035415;29;20181;-65
2023/06/28 04:11:07;;;;;;;3.60;1.48;;;15.20;64.10;;;;;;2028491;29;20680;-65
2023/06/28 04:12:08;;;;;;;1.90;1.60;;;15.10;63.90;;;;;;2020877;29;20210;-65
2023/06/28 04:13:10;;;;;;;2.97;1.80;;;15.10;64.20;;;;;;2017325;29;20342;-65
2023/06/28 04:14:10;;;;;;;3.65;1.60;;;15.10;64.70;;;;;;2020781;29;20189;-65
2023/06/28 04:15:11;;;;;;;3.13;1.60;;;15.10;64.30;;;;;;2028778;29;20192;-65
2023/06/28 04:16:12;;;;;;;3.43;1.80;;;15.10;64.70;;;;;;2031896;29;20320;-64
2023/06/28 04:17:13;;;;;;;1.70;1.60;;;15.20;65.00;;;;;;2035096;29;20370;-64
2023/06/28 04:18:14;;;;;;;3.50;1.80;;;15.10;65.50;;;;;;2032946;29;20692;-64
2023/06/28 04:19:14;;;;;;;2.50;1.67;;;15.10;65.90;;;;;;2031715;29;20181;-64
2023/06/28 04:20:15;;;;;;;2.17;1.60;;;15.10;66.10;;;;;;2025428;29;20185;-63
2023/06/28 04:21:16;;;;;;;2.20;1.77;;;15.20;66.70;;;;;;2026267;29;20190;-64
2023/06/28 04:22:16;;;;;;;1.90;1.30;;;15.10;66.70;;;;;;2030401;29;20193;-64
2023/06/28 04:23:17;;;;;;;3.23;1.73;;;15.10;66.80;;;;;;2026801;29;20185;-63
2023/06/28 04:24:18;;;;;;;4.43;1.77;;;15.10;66.40;;;;;;2027485;29;20268;-63
2023/06/28 04:25:18;;;;;;;3.60;1.87;;;15.00;66.90;;;;;;2021871;29;20621;-63
2023/06/28 04:26:19;;;;;;;3.20;1.60;;;15.00;66.60;;;;;;2026785;29;20193;-63
2023/06/28 04:27:20;;;;;;;2.20;1.70;;;15.10;66.30;;;;;;2026977;29;20198;-63
2023/06/28 04:28:21;;;;;;;3.13;1.70;;;15.10;66.50;;;;;;2031074;29;20879;-63
2023/06/28 04:29:22;;;;;;;2.67;1.70;;;15.10;66.90;;;;;;2028343;29;20236;-63
2023/06/28 04:30:24;;;;;;;1.93;1.50;;;15.00;67.10;;;;;;2030482;29;20237;-63
2023/06/28 04:31:25;;;;;;;4.55;1.80;;;15.10;66.70;;;;;;2031394;29;20252;-63
2023/06/28 04:32:28;;;;;;;4.33;1.60;;;15.20;66.40;;;;;;2027915;29;20261;-63
2023/06/28 04:33:29;;;;;;;2.72;1.75;;;15.10;66.20;;;;;;2027756;29;20229;-63
2023/06/28 04:34:31;;;;;;;5.40;1.77;;;15.10;65.80;;;;;;2027795;29;20291;-64
2023/06/28 04:35:34;;;;;;;2.40;1.70;;;15.10;65.10;;;;;;2038333;29;20247;-63
2023/06/28 04:36:35;;;;;;;2.60;2.13;;;15.00;65.10;;;;;;2030701;29;20265;-63
2023/06/28 04:37:39;;;;;;;4.03;1.50;;;15.10;65.10;;;;;;2029704;29;20875;-63
2023/06/28 04:38:41;;;;;;;9.45;1.95;;;15.20;65.40;;;;;;2037452;29;20287;-64
2023/06/28 04:39:43;;;;;;;3.78;1.75;;;15.20;65.30;;;;;;2033028;29;20237;-63
2023/06/28 04:40:44;;;;;;;1.75;1.50;;;15.20;65.30;;;;;;2029240;29;20232;-64
2023/06/28 04:41:45;;;;;;;3.00;1.80;;;15.30;65.60;;;;;;2029649;29;20242;-64
2023/06/28 04:42:46;;;;;;;2.13;1.70;;;15.30;65.60;;;;;;2027214;29;20276;-64
2023/06/28 04:43:46;;;;;;;4.43;2.20;;;15.30;64.40;;;;;;2035127;29;20612;-64
2023/06/28 04:44:49;;;;;;;2.60;1.70;;;15.30;64.40;;;;;;2036170;29;20240;-63
2023/06/28 04:45:50;;;;;;;3.80;1.80;;;15.20;64.80;;;;;;2025550;29;20256;-63
2023/06/28 04:46:52;;;;;;;3.37;1.80;;;15.20;65.20;;;;;;2028695;29;20221;-62
2023/06/28 04:47:52;;;;;;;4.65;2.00;;;15.10;65.20;;;;;;2027495;29;20229;-64
2023/06/28 04:48:56;;;;;;;5.90;1.93;;;15.20;65.30;;;;;;2027422;29;20295;-64
2023/06/28 04:49:56;;;;;;;4.30;1.70;;;15.20;65.50;;;;;;2026262;29;20796;-65
2023/06/28 04:50:58;;;;;;;2.73;1.60;;;15.20;66.50;;;;;;2030398;29;20228;-65
2023/06/28 04:51:59;;;;;;;5.23;1.87;;;15.20;66.20;;;;;;2030153;29;20228;-65
2023/06/28 04:53:03;;;;;;;3.20;1.80;;;15.20;66.10;;;;;;2030613;29;20506;-64
2023/06/28 04:54:04;;;;;;;3.10;1.90;;;15.20;66.20;;;;;;2036926;29;20255;-65
2023/06/28 04:55:05;;;;;;;3.07;1.80;;;15.20;65.50;;;;;;2024190;29;20429;-65
2023/06/28 04:56:06;;;;;;;3.78;1.92;;;15.30;64.90;;;;;;2030175;29;20189;-65
2023/06/28 04:57:08;;;;;;;4.87;1.87;;;15.20;65.30;;;;;;2027187;29;20673;-65
2023/06/28 04:58:09;;;;;;;2.70;1.85;;;15.30;65.70;;;;;;2030537;29;20224;-65
2023/06/28 04:59:10;;;;;;;3.60;1.70;;;15.30;67.00;;;;;;2031659;29;20184;-65
2023/06/28 05:00:11;;;;;;;4.90;2.10;;;15.20;67.20;;;;;;2030390;29;20285;-65
2023/06/28 05:01:12;;;;;;;3.15;1.90;;;15.20;66.80;;;;;;2028977;29;20185;-63
2023/06/28 05:02:14;;;;;;;5.17;2.40;;;15.10;66.20;;;;;;2038086;29;20183;-64
2023/06/28 05:03:15;;;;;;;5.63;1.83;;;15.20;65.20;;;;;;2038035;29;20229;-64
2023/06/28 05:04:17;;;;;;;6.57;2.10;;;15.30;64.90;;;;;;2028292;29;20556;-64
2023/06/28 05:05:18;;;;;;;2.53;1.95;;;15.30;66.80;;;;;;2028907;29;20244;-64
2023/06/28 05:06:19;;;;;;;5.40;2.10;;;15.30;67.30;;;;;;2030277;29;20248;-64
2023/06/28 05:07:19;;;;;;;6.07;2.65;;;15.20;67.60;;;;;;2030508;29;20181;-65
2023/06/28 05:08:23;;;;;;;3.50;2.00;;;15.20;68.30;;;;;;2029031;29;20213;-64
2023/06/28 05:09:24;;;;;;;2.72;2.10;;;15.20;67.90;;;;;;2030826;29;20228;-64
2023/06/28 05:10:25;;;;;;;3.60;1.90;;;15.20;66.40;;;;;;2028604;29;20245;-64
2023/06/28 05:11:25;;;;;;;2.43;1.47;;;15.30;65.90;;;;;;2026443;29;20827;-64
2023/06/28 05:12:26;;;;;;;5.07;1.90;;;15.30;65.40;;;;;;2021650;29;20229;-64
2023/06/28 05:13:27;;;;;;;4.97;1.80;;;15.40;66.50;;;;;;2028766;29;20269;-64
2023/06/28 05:14:29;;;;;;;3.83;1.70;;;15.40;65.50;;;;;;2028574;29;20324;-64
2023/06/28 05:15:32;;;;;;;3.60;2.10;;;15.50;65.00;;;;;;2027731;29;20241;-64
2023/06/28 05:16:33;;;;;;;2.27;1.60;;;15.50;64.80;;;;;;2024593;29;20480;-64
2023/06/28 05:17:34;;;;;;;3.60;2.00;;;15.50;64.30;;;;;;2029092;29;20909;-64
2023/06/28 05:18:35;;;;;;;2.23;1.87;;;15.50;63.80;;;;;;2026686;29;20244;-64
2023/06/28 05:19:36;;;;;;;4.97;1.80;;;15.60;63.90;;;;;;2027476;29;20232;-65